sensor_id;sensor_type;location;lat;lon;timestamp;temperature;humidity
32977;DHT22;67408;50.842;4.450;2023-02-13T17:32:59;18.00;83.90
32977;DHT22;67408;50.842;4.450;2023-02-13T17:35:25;18.00;84.10
32977;DHT22;67408;50.842;4.450;2023-02-13T17:37:50;18.10;83.80
32977;DHT22;67408;50.842;4.450;2023-02-13T17:40:18;18.30;83.30
32977;DHT22;67408;50.842;4.450;2023-02-13T17:42:45;18.50;82.70
32977;DHT22;67408;50.842;4.450;2023-02-13T17:45:13;18.70;82.10
32977;DHT22;67408;50.842;4.450;2023-02-13T17:47:40;18.80;81.70
32977;DHT22;67408;50.842;4.450;2023-02-13T17:50:06;19.00;81.80
32977;DHT22;67408;50.842;4.450;2023-02-13T17:52:32;19.10;81.70
32977;DHT22;67408;50.842;4.450;2023-02-13T17:54:58;19.20;81.70
32977;DHT22;67408;50.842;4.450;2023-02-13T17:57:24;19.20;81.60
32977;DHT22;67408;50.842;4.450;2023-02-13T17:59:50;19.30;81.70
32977;DHT22;67408;50.842;4.450;2023-02-13T18:02:21;19.40;81.70
32977;DHT22;67408;50.842;4.450;2023-02-13T18:04:47;19.40;81.60
32977;DHT22;67408;50.842;4.450;2023-02-13T18:07:15;19.50;81.70
32977;DHT22;67408;50.842;4.450;2023-02-13T18:09:41;19.50;81.80
32977;DHT22;67408;50.842;4.450;2023-02-13T18:12:15;19.50;81.70
32977;DHT22;67408;50.842;4.450;2023-02-13T18:14:41;19.50;81.80
32977;DHT22;67408;50.842;4.450;2023-02-13T18:17:07;19.60;81.80
32977;DHT22;67408;50.842;4.450;2023-02-13T18:19:33;19.60;81.80
32977;DHT22;67408;50.842;4.450;2023-02-13T18:21:59;19.60;81.80
32977;DHT22;67408;50.842;4.450;2023-02-13T18:24:36;19.60;81.80
32977;DHT22;67408;50.842;4.450;2023-02-13T18:27:02;19.60;81.80
32977;DHT22;67408;50.842;4.450;2023-02-13T18:29:27;19.70;81.50
32977;DHT22;67408;50.842;4.450;2023-02-13T18:31:53;19.70;81.20
32977;DHT22;67408;50.842;4.450;2023-02-13T18:34:21;19.70;81.00
32977;DHT22;67408;50.842;4.450;2023-02-13T18:36:47;19.70;80.80
32977;DHT22;67408;50.842;4.450;2023-02-13T18:39:13;19.70;80.60
32977;DHT22;67408;50.842;4.450;2023-02-13T18:41:39;19.60;80.50
32977;DHT22;67408;50.842;4.450;2023-02-13T18:44:05;19.70;80.40
32977;DHT22;67408;50.842;4.450;2023-02-13T18:46:30;19.70;80.30
32977;DHT22;67408;50.842;4.450;2023-02-13T18:48:56;19.70;80.20
32977;DHT22;67408;50.842;4.450;2023-02-13T18:51:22;19.70;80.10
32977;DHT22;67408;50.842;4.450;2023-02-13T18:53:47;19.70;80.10
32977;DHT22;67408;50.842;4.450;2023-02-13T18:56:13;19.70;80.10
32977;DHT22;67408;50.842;4.450;2023-02-13T18:58:39;19.60;80.00
32977;DHT22;67408;50.842;4.450;2023-02-13T19:01:13;19.60;80.30
32977;DHT22;67408;50.842;4.450;2023-02-13T19:03:40;19.90;80.80
32977;DHT22;67408;50.842;4.450;2023-02-13T19:06:08;20.00;80.20
32977;DHT22;67408;50.842;4.450;2023-02-13T19:08:34;19.90;80.30
32977;DHT22;67408;50.842;4.450;2023-02-13T19:11:09;19.90;80.50
32977;DHT22;67408;50.842;4.450;2023-02-13T19:13:35;19.90;80.70
32977;DHT22;67408;50.842;4.450;2023-02-13T19:16:06;19.80;80.80
32977;DHT22;67408;50.842;4.450;2023-02-13T19:18:35;19.70;80.90
32977;DHT22;67408;50.842;4.450;2023-02-13T19:21:02;19.80;81.10
32977;DHT22;67408;50.842;4.450;2023-02-13T19:23:28;19.80;80.70
32977;DHT22;67408;50.842;4.450;2023-02-13T19:25:54;19.80;80.80
32977;DHT22;67408;50.842;4.450;2023-02-13T19:28:20;19.70;80.70
32977;DHT22;67408;50.842;4.450;2023-02-13T19:30:45;19.70;80.60
32977;DHT22;67408;50.842;4.450;2023-02-13T19:33:11;19.60;80.50
32977;DHT22;67408;50.842;4.450;2023-02-13T19:35:36;19.70;80.50
32977;DHT22;67408;50.842;4.450;2023-02-13T19:38:02;19.60;80.40
32977;DHT22;67408;50.842;4.450;2023-02-13T19:40:28;19.60;80.30
32977;DHT22;67408;50.842;4.450;2023-02-13T19:42:54;19.60;80.30
32977;DHT22;67408;50.842;4.450;2023-02-13T19:45:19;19.60;80.20
32977;DHT22;67408;50.842;4.450;2023-02-13T19:47:45;19.50;80.10
32977;DHT22;67408;50.842;4.450;2023-02-13T19:50:11;19.50;80.10
32977;DHT22;67408;50.842;4.450;2023-02-13T19:52:37;19.50;80.00
32977;DHT22;67408;50.842;4.450;2023-02-13T19:55:02;19.50;80.00
32977;DHT22;67408;50.842;4.450;2023-02-13T19:57:28;19.50;79.90
32977;DHT22;67408;50.842;4.450;2023-02-13T19:59:54;19.50;79.80
32977;DHT22;67408;50.842;4.450;2023-02-13T20:02:19;19.50;79.80
32977;DHT22;67408;50.842;4.450;2023-02-13T20:04:46;19.50;79.70
32977;DHT22;67408;50.842;4.450;2023-02-13T20:07:12;19.50;79.70
32977;DHT22;67408;50.842;4.450;2023-02-13T20:09:39;19.50;79.70
32977;DHT22;67408;50.842;4.450;2023-02-13T20:12:05;19.50;79.60
32977;DHT22;67408;50.842;4.450;2023-02-13T20:14:31;19.50;79.60
32977;DHT22;67408;50.842;4.450;2023-02-13T20:16:56;19.50;79.60
32977;DHT22;67408;50.842;4.450;2023-02-13T20:19:22;19.50;79.60
32977;DHT22;67408;50.842;4.450;2023-02-13T20:21:48;19.50;79.60
32977;DHT22;67408;50.842;4.450;2023-02-13T20:24:14;19.50;79.60
32977;DHT22;67408;50.842;4.450;2023-02-13T20:26:40;19.40;79.50
32977;DHT22;67408;50.842;4.450;2023-02-13T20:29:06;19.50;79.50
32977;DHT22;67408;50.842;4.450;2023-02-13T20:31:32;19.40;79.50
32977;DHT22;67408;50.842;4.450;2023-02-13T20:33:58;19.50;79.60
32977;DHT22;67408;50.842;4.450;2023-02-13T20:36:26;19.40;79.60
32977;DHT22;67408;50.842;4.450;2023-02-13T20:38:54;19.50;79.60
32977;DHT22;67408;50.842;4.450;2023-02-13T20:41:22;19.40;79.60
32977;DHT22;67408;50.842;4.450;2023-02-13T20:43:48;19.40;79.60
32977;DHT22;67408;50.842;4.450;2023-02-13T20:46:15;19.40;79.60
32977;DHT22;67408;50.842;4.450;2023-02-13T20:48:42;19.50;79.60
32977;DHT22;67408;50.842;4.450;2023-02-13T20:51:10;19.40;79.60
32977;DHT22;67408;50.842;4.450;2023-02-13T20:53:37;19.40;79.60
32977;DHT22;67408;50.842;4.450;2023-02-13T20:56:08;19.40;79.70
32977;DHT22;67408;50.842;4.450;2023-02-13T20:58:38;19.40;79.90
32977;DHT22;67408;50.842;4.450;2023-02-13T21:01:13;19.50;80.10
32977;DHT22;67408;50.842;4.450;2023-02-13T21:03:40;19.50;80.20
32977;DHT22;67408;50.842;4.450;2023-02-13T21:06:07;19.50;80.30
32977;DHT22;67408;50.842;4.450;2023-02-13T21:08:32;19.50;80.30
32977;DHT22;67408;50.842;4.450;2023-02-13T21:11:02;19.50;80.30
32977;DHT22;67408;50.842;4.450;2023-02-13T21:13:28;19.50;80.40
32977;DHT22;67408;50.842;4.450;2023-02-13T21:16:02;19.50;80.50
32977;DHT22;67408;50.842;4.450;2023-02-13T21:18:28;19.50;80.40
32977;DHT22;67408;50.842;4.450;2023-02-13T21:20:53;19.50;80.10
32977;DHT22;67408;50.842;4.450;2023-02-13T21:23:20;19.50;79.90
32977;DHT22;67408;50.842;4.450;2023-02-13T21:25:45;19.50;79.80
32977;DHT22;67408;50.842;4.450;2023-02-13T21:28:11;19.50;79.60
32977;DHT22;67408;50.842;4.450;2023-02-13T21:30:36;19.50;79.50
32977;DHT22;67408;50.842;4.450;2023-02-13T21:33:02;19.50;79.40
32977;DHT22;67408;50.842;4.450;2023-02-13T21:35:27;19.50;79.30
32977;DHT22;67408;50.842;4.450;2023-02-13T21:37:53;19.50;79.20
32977;DHT22;67408;50.842;4.450;2023-02-13T21:40:18;19.50;79.20
32977;DHT22;67408;50.842;4.450;2023-02-13T21:42:45;19.50;79.20
32977;DHT22;67408;50.842;4.450;2023-02-13T21:45:10;19.50;79.20
32977;DHT22;67408;50.842;4.450;2023-02-13T21:47:36;19.40;79.10
32977;DHT22;67408;50.842;4.450;2023-02-13T21:50:03;19.40;79.10
32977;DHT22;67408;50.842;4.450;2023-02-13T21:52:29;19.40;79.10
32977;DHT22;67408;50.842;4.450;2023-02-13T21:54:55;19.40;79.10
32977;DHT22;67408;50.842;4.450;2023-02-13T21:57:20;19.40;79.10
32977;DHT22;67408;50.842;4.450;2023-02-13T21:59:46;19.40;79.10
